createdAt,value
2022-09-14T00:01:44.278Z,42.80
2022-09-14T00:06:41.042Z,47.58
2022-09-14T00:11:37.505Z,48.95
2022-09-14T00:16:35.134Z,38.55
2022-09-14T00:21:32.427Z,39.97
2022-09-14T00:26:28.682Z,50.42
2022-09-14T00:31:26.097Z,46.92
2022-09-14T00:36:24.534Z,48.50
2022-09-14T00:41:22.034Z,46.97
2022-09-14T00:46:18.327Z,42.35
2022-09-14T00:51:15.787Z,45.92
2022-09-14T00:56:12.209Z,50.95
2022-09-14T01:01:09.656Z,50.63
2022-09-14T01:06:27.420Z,41.55
2022-09-14T01:11:42.231Z,47.50
2022-09-14T01:16:46.997Z,46.88
2022-09-14T01:21:44.195Z,46.47
2022-09-14T01:26:52.622Z,47.50
2022-09-14T01:31:52.834Z,48.50
2022-09-14T01:36:51.681Z,51.40
2022-09-14T01:41:48.746Z,55.83
2022-09-14T01:46:47.914Z,49.00
2022-09-14T01:51:46.725Z,54.25
2022-09-14T01:56:49.314Z,57.35
2022-09-14T02:06:46.898Z,60.72
2022-09-14T02:11:43.079Z,58.25
2022-09-14T02:16:43.275Z,59.10
2022-09-14T02:21:40.282Z,61.15
2022-09-14T02:26:36.629Z,64.88
2022-09-14T02:31:46.603Z,68.30
2022-09-14T02:36:57.825Z,89.38
2022-09-14T02:41:58.936Z,90.72
2022-09-14T02:46:58.435Z,84.53
2022-09-14T02:52:03.515Z,89.13
2022-09-14T02:57:00.534Z,86.30
2022-09-14T03:01:58.678Z,88.68
2022-09-14T03:06:55.041Z,80.35
2022-09-14T03:11:51.239Z,84.78
2022-09-14T03:16:47.461Z,80.97
2022-09-14T03:21:43.687Z,84.22
2022-09-14T03:26:40.053Z,77.13
2022-09-14T03:31:36.515Z,79.43
2022-09-14T03:36:32.805Z,69.13
2022-09-14T03:41:29.463Z,79.43
2022-09-14T03:46:26.036Z,78.20
2022-09-14T03:51:22.367Z,74.97
2022-09-14T03:56:19.914Z,79.30
2022-09-14T04:01:17.339Z,86.80
2022-09-14T04:06:14.123Z,81.25
2022-09-14T04:11:11.886Z,80.05
2022-09-14T04:16:08.351Z,80.57
2022-09-14T04:21:08.554Z,80.88
2022-09-14T04:26:12.276Z,84.28
2022-09-14T04:31:09.375Z,82.15
2022-09-14T04:36:09.804Z,90.97
2022-09-14T04:41:11.324Z,98.00
2022-09-14T04:46:09.724Z,78.68
2022-09-14T04:51:07.518Z,75.90
2022-09-14T04:56:04.784Z,72.15
2022-09-14T05:01:04.720Z,70.50
2022-09-14T05:06:01.569Z,60.15
2022-09-14T05:10:58.246Z,52.10
2022-09-14T05:15:55.042Z,50.65
2022-09-14T05:20:51.294Z,47.58
2022-09-14T05:25:53.027Z,48.60
2022-09-14T05:30:49.292Z,46.17
2022-09-14T05:35:45.924Z,46.03
2022-09-14T05:40:42.168Z,45.05
2022-09-14T05:45:38.386Z,33.35
2022-09-14T05:50:34.608Z,31.00
2022-09-14T05:55:30.896Z,33.13
2022-09-14T06:00:27.715Z,29.70
2022-09-14T06:05:25.523Z,30.40
2022-09-14T06:10:21.812Z,26.80
2022-09-14T06:15:17.994Z,22.55
2022-09-14T06:20:14.535Z,24.30
2022-09-14T06:25:11.420Z,22.92
2022-09-14T06:30:08.039Z,21.35
2022-09-14T06:35:05.746Z,20.30
2022-09-14T06:40:04.865Z,21.30
2022-09-14T06:45:01.218Z,20.92
2022-09-14T06:49:57.731Z,21.27
2022-09-14T06:54:53.985Z,22.10
2022-09-14T06:59:50.219Z,22.95
2022-09-14T07:04:46.383Z,21.77
2022-09-14T07:09:42.590Z,20.92
2022-09-14T07:14:38.800Z,21.65
2022-09-14T07:19:35.042Z,23.73
2022-09-14T07:24:31.334Z,22.27
2022-09-14T07:29:27.556Z,23.40
2022-09-14T07:34:24.863Z,25.50
2022-09-14T07:39:21.039Z,23.33
2022-09-14T07:44:17.834Z,23.98
2022-09-14T07:49:15.451Z,23.30
2022-09-14T07:54:12.768Z,21.27
2022-09-14T07:59:34.384Z,19.02
2022-09-14T08:04:29.063Z,19.45
2022-09-14T08:09:25.813Z,20.52
2022-09-14T08:14:22.129Z,19.45
2022-09-14T08:19:20.695Z,15.85
2022-09-14T08:24:18.174Z,15.43
2022-09-14T08:29:15.952Z,14.27
2022-09-14T08:34:12.800Z,14.40
2022-09-14T08:39:11.250Z,16.15
2022-09-14T08:44:10.490Z,15.38
2022-09-14T08:49:12.491Z,15.02
2022-09-14T08:54:09.940Z,13.38
2022-09-14T08:59:16.812Z,11.30
2022-09-14T09:04:17.321Z,10.27
2022-09-14T09:09:27.198Z,10.38
2022-09-14T09:14:23.488Z,10.48
2022-09-14T09:19:27.908Z,10.70
2022-09-14T09:24:39.146Z,10.32
2022-09-14T09:29:35.325Z,8.75
2022-09-14T09:34:33.741Z,9.25
2022-09-14T09:39:31.070Z,8.38
2022-09-14T09:44:27.446Z,8.23
2022-09-14T09:49:26.117Z,8.88
2022-09-14T09:54:24.294Z,8.82
2022-09-14T09:59:36.866Z,9.32
2022-09-14T10:04:35.160Z,10.00
2022-09-14T10:09:31.651Z,9.07
2022-09-14T10:14:34.988Z,8.70
2022-09-14T10:19:31.602Z,8.68
2022-09-14T10:24:27.880Z,8.60
2022-09-14T10:29:35.362Z,9.48
2022-09-14T10:34:31.586Z,9.18
2022-09-14T10:39:35.335Z,9.68
2022-09-14T10:44:40.977Z,8.75
2022-09-14T10:49:48.205Z,8.85
2022-09-14T10:54:47.505Z,9.20
2022-09-14T10:59:43.683Z,9.13
2022-09-14T11:04:59.302Z,8.70
2022-09-14T11:10:15.947Z,8.77
2022-09-14T11:15:18.547Z,8.48
2022-09-14T11:20:15.462Z,8.63
2022-09-14T11:25:17.305Z,8.35
2022-09-14T11:30:15.703Z,8.95
2022-09-14T11:35:21.025Z,9.00
2022-09-14T11:40:20.347Z,8.77
2022-09-14T11:45:22.323Z,8.30
2022-09-14T11:50:20.893Z,9.00
2022-09-14T11:55:18.228Z,9.07
2022-09-14T12:00:23.722Z,8.70
2022-09-14T12:05:22.660Z,8.60
2022-09-14T12:10:19.973Z,8.07
2022-09-14T12:15:25.948Z,8.40
2022-09-14T12:20:37.213Z,8.68
2022-09-14T12:25:33.943Z,9.55
2022-09-14T12:30:40.386Z,8.80
2022-09-14T12:35:40.239Z,9.38
2022-09-14T12:40:36.963Z,8.10
2022-09-14T12:45:59.783Z,8.18
2022-09-14T12:50:56.191Z,7.95
2022-09-14T12:55:56.027Z,8.45
2022-09-14T13:01:12.588Z,8.63
2022-09-14T13:06:12.566Z,8.73
2022-09-14T13:11:09.183Z,9.57
2022-09-14T13:16:06.716Z,9.48
2022-09-14T13:21:19.878Z,10.23
2022-09-14T13:26:24.288Z,9.18
2022-09-14T13:31:25.481Z,9.40
2022-09-14T13:36:23.316Z,9.20
2022-09-14T13:41:22.203Z,8.32
2022-09-14T13:46:20.626Z,9.05
2022-09-14T13:51:24.899Z,9.40
2022-09-14T13:56:21.199Z,9.50
2022-09-14T14:01:24.595Z,9.00
2022-09-14T14:06:20.881Z,9.25
2022-09-14T14:11:25.810Z,9.18
2022-09-14T14:16:23.825Z,9.32
2022-09-14T14:21:23.019Z,9.20
2022-09-14T14:26:26.978Z,8.82
2022-09-14T14:31:26.080Z,9.05
2022-09-14T14:36:22.455Z,8.00
2022-09-14T14:41:20.647Z,8.60
2022-09-14T14:46:17.081Z,8.38
2022-09-14T14:51:14.238Z,7.50
2022-09-14T14:56:11.844Z,9.20
2022-09-14T15:01:08.516Z,9.73
2022-09-14T15:06:12.220Z,9.10
2022-09-14T15:11:16.704Z,8.57
2022-09-14T15:16:13.847Z,8.35
2022-09-14T15:21:10.394Z,8.27
2022-09-14T15:26:06.743Z,7.75
2022-09-14T15:31:05.976Z,8.88
2022-09-14T15:36:04.063Z,8.95
2022-09-14T15:41:00.296Z,8.50
2022-09-14T15:46:01.303Z,7.90
2022-09-14T15:51:00.552Z,8.52
2022-09-14T15:55:57.212Z,9.00
2022-09-14T16:00:53.439Z,8.20
2022-09-14T16:05:49.634Z,8.02
2022-09-14T16:10:45.916Z,7.22
2022-09-14T16:15:42.111Z,7.60
2022-09-14T16:20:38.380Z,7.93
2022-09-14T16:25:40.592Z,7.22
2022-09-14T16:30:36.943Z,7.60
2022-09-14T16:35:33.111Z,7.43
2022-09-14T16:40:29.309Z,8.00
2022-09-14T16:45:25.610Z,8.07
2022-09-14T16:50:22.003Z,8.35
2022-09-14T16:55:18.187Z,7.70
2022-09-14T17:00:14.702Z,8.52
2022-09-14T17:05:10.927Z,8.90
2022-09-14T17:10:08.014Z,8.55
2022-09-14T17:15:04.340Z,7.72
2022-09-14T17:20:00.586Z,8.20
2022-09-14T17:24:57.389Z,8.68
2022-09-14T17:29:53.640Z,7.72
2022-09-14T17:34:49.888Z,8.43
2022-09-14T17:39:46.124Z,9.13
2022-09-14T17:44:42.868Z,8.40
2022-09-14T17:49:39.053Z,8.90
2022-09-14T17:54:35.445Z,9.95
2022-09-14T17:59:31.641Z,8.60
2022-09-14T18:04:27.958Z,8.95
2022-09-14T18:09:24.640Z,10.68
2022-09-14T18:14:20.843Z,8.98
2022-09-14T18:19:17.136Z,9.48
2022-09-14T18:24:14.939Z,9.23
2022-09-14T18:29:13.692Z,9.82
2022-09-14T18:34:10.198Z,9.73
2022-09-14T18:39:06.471Z,10.43
2022-09-14T18:44:02.722Z,10.10
2022-09-14T18:48:59.655Z,10.35
2022-09-14T18:53:57.134Z,11.27
2022-09-14T18:58:53.384Z,9.93
2022-09-14T19:03:49.901Z,10.10
2022-09-14T19:08:46.460Z,11.30
2022-09-14T19:13:42.939Z,11.60
2022-09-14T19:18:39.736Z,12.27
2022-09-14T19:23:36.550Z,12.65
2022-09-14T19:28:33.421Z,13.50
2022-09-14T19:33:30.339Z,14.20
2022-09-14T19:38:28.305Z,15.45
2022-09-14T19:43:24.576Z,15.43
2022-09-14T19:48:20.808Z,16.80
2022-09-14T19:53:17.042Z,16.02
2022-09-14T19:58:13.346Z,15.95
2022-09-14T20:03:09.667Z,15.52
2022-09-14T20:08:05.930Z,17.15
2022-09-14T20:13:02.109Z,17.13
2022-09-14T20:17:58.326Z,20.15
2022-09-14T20:22:54.519Z,18.67
2022-09-14T20:27:50.740Z,20.52
2022-09-14T20:32:46.952Z,22.25
2022-09-14T20:37:43.611Z,21.35
2022-09-14T20:42:39.974Z,23.55
2022-09-14T20:47:36.352Z,26.73
2022-09-14T20:52:32.628Z,28.08
2022-09-14T20:57:28.815Z,30.58
2022-09-14T21:02:25.048Z,32.88
2022-09-14T21:07:22.190Z,35.78
2022-09-14T21:12:18.365Z,35.88
2022-09-14T21:17:14.660Z,36.13
2022-09-14T21:22:10.868Z,34.78
2022-09-14T21:27:07.607Z,34.08
2022-09-14T21:32:08.768Z,34.70
2022-09-14T21:37:05.304Z,31.65
2022-09-14T21:42:01.479Z,28.83
2022-09-14T21:46:57.828Z,28.38
2022-09-14T21:51:54.083Z,28.40
2022-09-14T21:56:50.339Z,29.83
2022-09-14T22:01:47.639Z,31.25
2022-09-14T22:06:45.480Z,29.00
2022-09-14T22:11:41.902Z,29.60
2022-09-14T22:16:38.567Z,28.77
2022-09-14T22:21:36.339Z,32.38
2022-09-14T22:26:33.851Z,31.05
2022-09-14T22:31:31.448Z,28.80
2022-09-14T22:36:27.970Z,29.60
2022-09-14T22:41:25.904Z,28.38
2022-09-14T22:46:22.823Z,27.45
2022-09-14T22:51:23.092Z,26.98
2022-09-14T22:56:19.264Z,29.10
2022-09-14T23:01:17.246Z,28.02
2022-09-14T23:06:13.871Z,30.70
2022-09-14T23:11:11.321Z,29.17
2022-09-14T23:16:11.404Z,26.40
2022-09-14T23:21:08.015Z,25.15
2022-09-14T23:26:08.516Z,24.27
2022-09-14T23:31:05.402Z,22.52
2022-09-14T23:36:01.708Z,22.58
2022-09-14T23:40:58.641Z,22.40
2022-09-14T23:45:54.930Z,22.95
2022-09-14T23:50:58.303Z,23.00
2022-09-14T23:55:54.520Z,22.40
